Mangonia Park, Florida
Current Conditions -  °F | °C
As of 9:53 AM on Friday 28 Nov 2014 (Local Time) from KPBI Reporting Station
Scattered Clouds Scattered Clouds  
Wind Chill: 63°   Ceiling: Unl
Heat Index: 63°   Visibility: 10mi
Dew Point: 49°   Wind: 16mph
Humidity: 60%   Direction: 330°NNW
Pressure: 30.24"   Gusts: NA
Location:  26.7596°N, 80.0917°W
Report Text: KPBI 281453Z 33014KT 10SM FEW035 SCT250 17/09 A3024 RMK AO2 SLP240 T01720094 51014
Loading
Personal Weather Stations






























Interactive Weather Map New forecast layout! Learn more

10-Day Weather Forecast

Advertisements
Track Severe Weather on mobile